createdAt,value
2022-07-29T00:04:16.741Z,60.00
2022-07-29T00:09:19.466Z,60.20
2022-07-29T00:14:23.239Z,60.10
2022-07-29T00:19:25.545Z,61.50
2022-07-29T00:24:28.090Z,60.70
2022-07-29T00:29:33.906Z,61.30
2022-07-29T00:34:37.072Z,61.80
2022-07-29T00:39:39.339Z,61.80
2022-07-29T00:44:43.243Z,62.00
2022-07-29T00:49:45.694Z,62.20
2022-07-29T00:54:48.121Z,61.90
2022-07-29T00:59:51.887Z,62.80
2022-07-29T01:04:55.401Z,62.00
2022-07-29T01:09:59.592Z,61.90
2022-07-29T01:15:05.515Z,62.20
2022-07-29T01:20:14.836Z,62.40
2022-07-29T01:25:38.050Z,62.80
2022-07-29T01:30:45.625Z,63.30
2022-07-29T01:35:48.363Z,63.00
2022-07-29T01:40:55.521Z,62.70
2022-07-29T01:46:02.742Z,63.00
2022-07-29T01:51:08.593Z,63.00
2022-07-29T01:56:12.386Z,62.40
2022-07-29T02:01:18.657Z,62.40
2022-07-29T02:06:24.510Z,63.00
2022-07-29T02:11:27.373Z,63.00
2022-07-29T02:16:33.749Z,63.00
2022-07-29T02:21:37.066Z,63.60
2022-07-29T02:26:42.721Z,63.30
2022-07-29T02:31:49.209Z,63.60
2022-07-29T02:36:53.360Z,64.00
2022-07-29T02:42:02.301Z,63.50
2022-07-29T02:47:14.631Z,64.00
2022-07-29T02:52:23.075Z,64.20
2022-07-29T02:57:33.544Z,64.10
2022-07-29T03:02:41.737Z,64.30
2022-07-29T03:07:48.492Z,64.10
2022-07-29T03:12:51.656Z,64.10
2022-07-29T03:17:55.624Z,64.00
2022-07-29T03:22:57.920Z,64.00
2022-07-29T03:28:01.143Z,64.00
2022-07-29T03:33:10.231Z,64.10
2022-07-29T03:38:16.428Z,64.20
2022-07-29T03:43:20.195Z,64.20
2022-07-29T03:48:26.438Z,64.20
2022-07-29T03:53:29.137Z,64.40
2022-07-29T03:58:32.707Z,64.20
2022-07-29T04:03:36.979Z,64.30
2022-07-29T04:08:39.701Z,64.40
2022-07-29T04:13:42.030Z,64.20
2022-07-29T04:18:45.844Z,64.40
2022-07-29T04:23:53.663Z,64.60
2022-07-29T04:28:56.415Z,64.70
2022-07-29T04:34:00.249Z,64.80
2022-07-29T04:39:02.872Z,65.10
2022-07-29T04:44:05.597Z,65.00
2022-07-29T04:49:10.738Z,65.30
2022-07-29T04:54:13.445Z,65.70
2022-07-29T04:59:16.271Z,65.60
2022-07-29T05:04:20.622Z,65.80
2022-07-29T05:09:23.531Z,66.00
2022-07-29T05:14:27.001Z,66.30
2022-07-29T05:19:30.829Z,65.90
2022-07-29T05:24:33.188Z,65.90
2022-07-29T05:29:44.439Z,66.10
2022-07-29T05:34:50.762Z,66.10
2022-07-29T05:39:56.515Z,66.10
2022-07-29T05:44:59.789Z,65.90
2022-07-29T05:50:04.007Z,66.10
2022-07-29T05:55:07.424Z,66.40
2022-07-29T06:00:11.429Z,66.50
2022-07-29T06:05:16.291Z,66.80
2022-07-29T06:10:20.082Z,66.50
2022-07-29T06:15:26.601Z,67.00
2022-07-29T06:20:31.521Z,67.00
2022-07-29T06:25:34.435Z,67.10
2022-07-29T06:30:37.111Z,67.20
2022-07-29T06:35:42.724Z,67.20
2022-07-29T06:40:56.025Z,66.80
2022-07-29T06:45:59.728Z,66.20
2022-07-29T06:51:04.269Z,65.80
2022-07-29T06:56:08.109Z,65.70
2022-07-29T07:01:10.692Z,65.40
2022-07-29T07:06:17.821Z,65.50
2022-07-29T07:11:42.721Z,65.50
2022-07-29T07:16:45.440Z,64.90
2022-07-29T07:21:49.469Z,64.30
2022-07-29T07:26:52.102Z,64.20
2022-07-29T07:31:58.945Z,64.10
2022-07-29T07:37:04.978Z,64.30
2022-07-29T07:42:07.612Z,63.60
2022-07-29T07:47:12.545Z,62.60
2022-07-29T07:52:17.831Z,62.10
2022-07-29T07:57:20.362Z,61.30
2022-07-29T08:02:22.758Z,61.40
2022-07-29T08:07:26.663Z,61.60
2022-07-29T08:12:29.101Z,61.70
2022-07-29T08:17:31.552Z,60.90
2022-07-29T08:22:39.529Z,59.00
2022-07-29T08:27:43.862Z,59.10
2022-07-29T08:32:54.319Z,58.70
2022-07-29T08:37:58.813Z,56.20
2022-07-29T08:43:06.765Z,55.20
2022-07-29T08:48:10.134Z,55.10
2022-07-29T08:53:15.749Z,56.60
2022-07-29T08:58:22.961Z,54.00
2022-07-29T09:03:32.410Z,53.00
2022-07-29T09:08:36.570Z,52.70
2022-07-29T09:13:39.070Z,51.00
2022-07-29T09:18:43.051Z,51.00
2022-07-29T09:24:05.623Z,50.70
2022-07-29T09:29:12.223Z,50.80
2022-07-29T09:34:17.464Z,51.20
2022-07-29T09:39:31.963Z,51.70
2022-07-29T09:44:45.948Z,52.00
2022-07-29T09:49:57.568Z,52.40
2022-07-29T09:55:09.033Z,51.70
2022-07-29T10:00:14.304Z,51.50
2022-07-29T10:05:22.768Z,51.10
2022-07-29T10:10:28.931Z,47.90
2022-07-29T10:15:34.053Z,49.90
2022-07-29T10:20:37.033Z,50.20
2022-07-29T10:25:46.020Z,51.10
2022-07-29T10:30:51.653Z,50.80
2022-07-29T10:36:16.235Z,51.10
2022-07-29T10:41:43.837Z,49.60
2022-07-29T10:46:47.772Z,49.30
2022-07-29T10:52:01.516Z,49.20
2022-07-29T10:57:15.137Z,48.00
2022-07-29T11:02:44.845Z,46.30
2022-07-29T11:08:26.368Z,46.50
2022-07-29T11:13:51.472Z,45.30
2022-07-29T11:19:29.774Z,44.60
2022-07-29T11:24:34.898Z,42.80
2022-07-29T11:29:41.535Z,44.30
2022-07-29T11:34:45.688Z,42.80
2022-07-29T11:40:10.004Z,44.20
2022-07-29T11:45:42.624Z,44.00
2022-07-29T11:56:09.497Z,44.80
2022-07-29T12:01:18.807Z,45.60
2022-07-29T12:06:21.949Z,45.40
2022-07-29T12:07:03.198Z,44.70
2022-07-29T12:11:26.296Z,45.70
2022-07-29T12:16:40.340Z,45.30
2022-07-29T12:21:53.619Z,44.40
2022-07-29T12:27:02.657Z,44.20
2022-07-29T12:32:14.538Z,44.40
2022-07-29T12:37:40.956Z,43.90
2022-07-29T12:43:12.119Z,44.80
2022-07-29T12:48:17.598Z,45.40
2022-07-29T12:53:20.137Z,45.80
2022-07-29T12:58:33.573Z,46.90
2022-07-29T13:03:57.014Z,47.00
2022-07-29T13:09:02.453Z,47.60
2022-07-29T13:14:07.139Z,48.20
2022-07-29T13:19:14.775Z,48.50
2022-07-29T13:24:19.993Z,49.00
2022-07-29T13:29:22.714Z,49.40
2022-07-29T13:34:27.922Z,49.50
2022-07-29T13:39:30.289Z,49.40
2022-07-29T13:44:32.712Z,49.60
2022-07-29T13:49:38.676Z,50.00
2022-07-29T13:54:42.534Z,49.50
2022-07-29T13:59:46.164Z,49.30
2022-07-29T14:04:51.369Z,49.10
2022-07-29T14:09:53.742Z,49.20
2022-07-29T14:14:56.117Z,49.50
2022-07-29T14:19:59.960Z,50.30
2022-07-29T14:25:13.082Z,50.40
2022-07-29T14:30:18.023Z,50.30
2022-07-29T14:35:21.864Z,50.10
2022-07-29T14:40:24.311Z,50.60
2022-07-29T14:45:26.747Z,50.60
2022-07-29T14:50:31.825Z,50.50
2022-07-29T14:55:34.768Z,50.60
2022-07-29T15:00:37.173Z,50.60
2022-07-29T15:05:41.023Z,50.50
2022-07-29T15:10:43.461Z,50.50
2022-07-29T15:15:46.004Z,50.40
2022-07-29T15:20:51.282Z,50.40
2022-07-29T15:25:54.027Z,50.50
2022-07-29T15:30:56.369Z,50.60
2022-07-29T15:36:00.934Z,50.70
2022-07-29T15:41:03.445Z,50.90
2022-07-29T15:46:06.152Z,51.20
2022-07-29T15:51:10.081Z,51.40
2022-07-29T15:56:12.503Z,51.70
2022-07-29T16:01:15.075Z,52.10
2022-07-29T16:06:19.051Z,52.40
2022-07-29T16:11:21.587Z,52.60
2022-07-29T16:16:23.994Z,52.70
2022-07-29T16:21:27.797Z,52.50
2022-07-29T16:26:30.348Z,52.50
2022-07-29T16:31:32.872Z,52.30
2022-07-29T16:36:36.768Z,52.30
2022-07-29T16:41:39.229Z,52.40
2022-07-29T16:46:44.643Z,52.10
2022-07-29T16:51:48.481Z,52.30
2022-07-29T16:56:50.869Z,52.20
2022-07-29T17:01:53.465Z,52.30
2022-07-29T17:06:58.318Z,52.50
2022-07-29T17:12:01.052Z,52.70
2022-07-29T17:17:03.567Z,52.70
2022-07-29T17:22:13.088Z,52.60
2022-07-29T17:27:18.586Z,52.80
2022-07-29T17:32:21.479Z,52.60
2022-07-29T17:37:25.452Z,52.50
2022-07-29T17:42:27.846Z,52.30
2022-07-29T17:47:30.475Z,52.30
2022-07-29T17:52:34.572Z,52.40
2022-07-29T17:57:37.166Z,52.60
2022-07-29T18:02:39.653Z,52.60
2022-07-29T18:07:43.566Z,52.70
2022-07-29T18:12:45.988Z,52.70
2022-07-29T18:17:56.776Z,52.70
2022-07-29T18:23:01.881Z,52.70
2022-07-29T18:28:05.436Z,52.70
2022-07-29T18:33:23.417Z,52.80
2022-07-29T18:38:27.355Z,52.80
2022-07-29T18:43:29.883Z,52.90
2022-07-29T18:48:32.793Z,52.90
2022-07-29T18:53:37.059Z,53.00
2022-07-29T18:58:39.561Z,53.00
2022-07-29T19:03:42.127Z,52.90
2022-07-29T19:08:46.170Z,53.00
2022-07-29T19:13:48.561Z,53.00
2022-07-29T19:18:50.947Z,53.10
2022-07-29T19:24:06.059Z,53.30
2022-07-29T19:29:11.191Z,53.70
2022-07-29T19:34:13.989Z,53.90
2022-07-29T19:39:18.220Z,54.20
2022-07-29T19:44:37.441Z,54.30
2022-07-29T19:49:40.026Z,54.40
2022-07-29T19:54:43.972Z,54.70
2022-07-29T19:59:46.703Z,54.90
2022-07-29T20:04:49.112Z,54.90
2022-07-29T20:09:53.475Z,55.10
2022-07-29T20:14:56.159Z,55.30
2022-07-29T20:19:58.710Z,55.40
2022-07-29T20:25:02.509Z,55.50
2022-07-29T20:30:06.712Z,55.80
2022-07-29T20:35:10.735Z,56.00
2022-07-29T20:40:14.725Z,56.30
2022-07-29T20:45:17.361Z,56.80
2022-07-29T20:50:20.657Z,56.80
2022-07-29T20:55:28.022Z,57.20
2022-07-29T21:00:30.771Z,57.50
2022-07-29T21:05:33.175Z,57.70
2022-07-29T21:10:37.130Z,57.80
2022-07-29T21:15:39.683Z,58.10
2022-07-29T21:20:42.267Z,58.00
2022-07-29T21:25:46.221Z,58.20
2022-07-29T21:30:48.599Z,58.50
2022-07-29T21:41:15.544Z,58.50
2022-07-29T21:46:18.383Z,58.70
2022-07-29T21:51:20.907Z,58.80
2022-07-29T21:56:27.806Z,59.00
2022-07-29T22:01:38.940Z,59.30
2022-07-29T22:06:41.812Z,58.90
2022-07-29T22:11:45.857Z,59.20
2022-07-29T22:16:48.967Z,59.70
2022-07-29T22:21:51.605Z,59.90
2022-07-29T22:26:55.873Z,60.20
2022-07-29T22:31:58.504Z,60.50
2022-07-29T22:37:01.290Z,60.50
2022-07-29T22:42:05.858Z,60.70
2022-07-29T22:47:08.458Z,61.10
2022-07-29T22:52:10.937Z,61.30
2022-07-29T22:57:14.740Z,61.50
2022-07-29T23:02:17.073Z,61.80
2022-07-29T23:07:19.456Z,61.90
2022-07-29T23:12:23.468Z,62.10
2022-07-29T23:17:26.007Z,62.40
2022-07-29T23:22:28.436Z,62.40
2022-07-29T23:27:32.507Z,62.50
2022-07-29T23:32:35.006Z,62.80
2022-07-29T23:37:37.510Z,62.80
2022-07-29T23:42:42.455Z,62.90
2022-07-29T23:47:44.851Z,63.20
2022-07-29T23:52:47.218Z,63.30
2022-07-29T23:57:51.235Z,63.60
